createdAt,value
2022-10-10T00:02:06.757Z,14.53
2022-10-10T00:04:34.886Z,14.70
2022-10-10T00:07:02.877Z,14.70
2022-10-10T00:09:32.270Z,14.80
2022-10-10T00:12:00.341Z,15.53
2022-10-10T00:14:31.629Z,14.37
2022-10-10T00:17:00.631Z,13.83
2022-10-10T00:19:28.751Z,12.57
2022-10-10T00:21:56.912Z,13.37
2022-10-10T00:24:24.917Z,14.40
2022-10-10T00:26:54.303Z,15.00
2022-10-10T00:29:22.259Z,14.90
2022-10-10T00:31:50.304Z,15.10
2022-10-10T00:34:18.295Z,14.43
2022-10-10T00:36:46.300Z,13.97
2022-10-10T00:39:14.317Z,15.33
2022-10-10T00:41:42.307Z,15.07
2022-10-10T00:44:13.909Z,15.73
2022-10-10T00:46:42.789Z,15.53
2022-10-10T00:49:14.414Z,14.77
2022-10-10T00:51:43.407Z,15.10
2022-10-10T00:54:14.131Z,15.57
2022-10-10T00:56:49.460Z,15.83
2022-10-10T00:59:21.186Z,14.80
2022-10-10T01:01:49.213Z,15.47
2022-10-10T01:04:34.487Z,16.07
2022-10-10T01:07:04.369Z,15.03
2022-10-10T01:09:33.615Z,15.07
2022-10-10T01:12:13.499Z,16.40
2022-10-10T01:14:49.265Z,13.97
2022-10-10T01:17:24.076Z,14.20
2022-10-10T01:20:29.960Z,15.07
2022-10-10T01:23:18.196Z,14.80
2022-10-10T01:26:03.483Z,14.73
2022-10-10T01:28:40.509Z,13.57
2022-10-10T01:31:11.848Z,14.67
2022-10-10T01:33:49.990Z,14.70
2022-10-10T01:36:23.626Z,13.67
2022-10-10T01:38:57.096Z,15.00
2022-10-10T01:41:29.181Z,14.83
2022-10-10T01:43:59.786Z,14.43
2022-10-10T01:46:28.007Z,14.63
2022-10-10T01:48:58.951Z,15.03
2022-10-10T01:51:50.545Z,15.37
2022-10-10T01:54:35.034Z,15.97
2022-10-10T01:57:19.848Z,15.93
2022-10-10T02:00:00.946Z,16.30
2022-10-10T02:02:40.869Z,15.93
2022-10-10T02:05:18.697Z,16.20
2022-10-10T02:07:52.485Z,16.73
2022-10-10T02:10:25.272Z,16.03
2022-10-10T02:12:53.895Z,16.33
2022-10-10T02:15:26.920Z,15.50
2022-10-10T02:17:55.780Z,15.83
2022-10-10T02:20:27.430Z,16.50
2022-10-10T02:22:56.921Z,16.00
2022-10-10T02:25:29.273Z,16.73
2022-10-10T02:28:07.665Z,15.77
2022-10-10T02:30:42.853Z,16.10
2022-10-10T02:33:13.030Z,16.10
2022-10-10T02:35:44.204Z,16.17
2022-10-10T02:38:15.726Z,15.43
2022-10-10T02:40:47.387Z,16.17
2022-10-10T02:43:16.578Z,14.80
2022-10-10T02:45:46.473Z,16.40
2022-10-10T02:48:14.541Z,16.90
2022-10-10T02:50:42.877Z,15.60
2022-10-10T02:53:10.825Z,14.63
2022-10-10T02:55:38.854Z,15.67
2022-10-10T02:58:06.856Z,15.77
2022-10-10T03:00:34.898Z,15.43
2022-10-10T03:03:04.781Z,15.57
2022-10-10T03:05:32.796Z,14.83
2022-10-10T03:08:00.797Z,14.97
2022-10-10T03:10:28.828Z,15.03
2022-10-10T03:12:56.902Z,14.10
2022-10-10T03:15:24.871Z,15.07
2022-10-10T03:17:52.827Z,15.03
2022-10-10T03:20:22.297Z,12.57
2022-10-10T03:22:50.518Z,12.53
2022-10-10T03:25:18.894Z,13.33
2022-10-10T03:27:46.882Z,12.93
2022-10-10T03:30:15.178Z,13.10
2022-10-10T03:32:43.285Z,14.03
2022-10-10T03:35:11.297Z,13.90
2022-10-10T03:37:40.646Z,14.50
2022-10-10T03:40:09.297Z,13.53
2022-10-10T03:42:37.438Z,14.33
2022-10-10T03:45:06.670Z,15.07
2022-10-10T03:47:34.644Z,14.73
2022-10-10T03:50:02.682Z,12.40
2022-10-10T03:52:30.702Z,13.33
2022-10-10T03:55:00.186Z,13.83
2022-10-10T03:57:28.298Z,13.83
2022-10-10T03:59:56.317Z,13.47
2022-10-10T04:02:24.353Z,12.93
2022-10-10T04:04:53.296Z,12.33
2022-10-10T04:07:21.408Z,12.43
2022-10-10T04:09:49.619Z,12.80
2022-10-10T04:12:19.628Z,12.07
2022-10-10T04:14:47.719Z,12.30
2022-10-10T04:17:15.844Z,13.27
2022-10-10T04:19:44.111Z,12.50
2022-10-10T04:22:12.501Z,12.80
2022-10-10T04:24:41.308Z,12.53
2022-10-10T04:27:09.419Z,12.53
2022-10-10T04:29:38.941Z,13.30
2022-10-10T04:32:07.622Z,13.97
2022-10-10T04:34:35.729Z,13.90
2022-10-10T04:37:05.103Z,14.10
2022-10-10T04:39:33.239Z,14.07
2022-10-10T04:42:01.425Z,13.07
2022-10-10T04:44:29.726Z,14.83
2022-10-10T04:46:59.133Z,14.53
2022-10-10T04:49:27.318Z,14.20
2022-10-10T04:51:55.307Z,15.07
2022-10-10T04:54:23.288Z,13.97
2022-10-10T04:56:51.318Z,14.60
2022-10-10T04:59:20.513Z,15.30
2022-10-10T05:01:48.524Z,14.60
2022-10-10T05:04:17.927Z,14.33
2022-10-10T05:06:46.335Z,14.77
2022-10-10T05:09:14.509Z,14.63
2022-10-10T05:11:43.004Z,14.93
2022-10-10T05:14:10.988Z,14.20
2022-10-10T05:16:38.975Z,14.37
2022-10-10T05:19:06.990Z,13.33
2022-10-10T05:21:36.528Z,12.60
2022-10-10T05:24:04.891Z,14.67
2022-10-10T05:26:32.889Z,14.17
2022-10-10T05:29:01.763Z,14.60
2022-10-10T05:31:29.888Z,13.63
2022-10-10T05:33:58.084Z,12.33
2022-10-10T05:36:26.091Z,13.53
2022-10-10T05:38:55.479Z,13.20
2022-10-10T05:41:23.520Z,13.10
2022-10-10T05:43:51.485Z,14.20
2022-10-10T05:46:20.522Z,14.13
2022-10-10T05:48:48.610Z,14.57
2022-10-10T05:51:16.635Z,14.93
2022-10-10T05:53:45.142Z,15.80
2022-10-10T05:56:16.898Z,15.17
2022-10-10T05:58:45.275Z,14.90
2022-10-10T06:01:13.301Z,17.57
2022-10-10T06:03:41.350Z,14.00
2022-10-10T06:06:09.391Z,14.17
2022-10-10T06:08:37.626Z,13.77
2022-10-10T06:11:08.141Z,15.70
2022-10-10T06:13:38.945Z,13.43
2022-10-10T06:16:07.212Z,13.30
2022-10-10T06:18:35.240Z,13.80
2022-10-10T06:21:04.176Z,12.70
2022-10-10T06:23:32.181Z,13.07
2022-10-10T06:26:00.485Z,13.30
2022-10-10T06:28:28.603Z,13.50
2022-10-10T06:31:01.029Z,17.13
2022-10-10T06:33:29.230Z,17.73
2022-10-10T06:35:57.242Z,17.23
2022-10-10T06:38:25.508Z,15.97
2022-10-10T06:40:54.790Z,16.43
2022-10-10T06:43:25.500Z,16.17
2022-10-10T06:45:53.462Z,13.13
2022-10-10T06:48:22.905Z,14.77
2022-10-10T06:50:58.913Z,15.37
2022-10-10T06:53:28.035Z,14.97
2022-10-10T06:55:56.693Z,17.80
2022-10-10T06:58:26.311Z,15.00
2022-10-10T07:00:55.710Z,15.10
2022-10-10T07:03:26.084Z,14.33
2022-10-10T07:05:55.830Z,16.60
2022-10-10T07:08:24.613Z,15.63
2022-10-10T07:10:52.692Z,16.03
2022-10-10T07:13:21.346Z,15.67
2022-10-10T07:15:50.035Z,16.83
2022-10-10T07:18:20.023Z,15.53
2022-10-10T07:20:49.923Z,14.93
2022-10-10T07:23:18.378Z,12.50
2022-10-10T07:25:46.509Z,14.33
2022-10-10T07:28:14.566Z,14.23
2022-10-10T07:30:44.031Z,14.50
2022-10-10T07:33:12.652Z,14.10
2022-10-10T07:35:41.344Z,19.15
2022-10-10T07:38:12.049Z,14.37
2022-10-10T07:40:41.446Z,12.50
2022-10-10T07:43:09.539Z,12.90
2022-10-10T07:45:37.980Z,12.85
2022-10-10T07:48:06.593Z,13.83
2022-10-10T07:50:34.612Z,11.95
2022-10-10T07:53:02.923Z,11.27
2022-10-10T07:55:32.499Z,12.25
2022-10-10T07:58:03.138Z,10.37
2022-10-10T08:00:31.197Z,10.95
2022-10-10T08:02:59.212Z,12.98
2022-10-10T08:05:27.546Z,11.88
2022-10-10T08:07:55.912Z,12.18
2022-10-10T08:10:24.177Z,11.63
2022-10-10T08:12:53.558Z,12.02
2022-10-10T08:15:21.907Z,12.30
2022-10-10T08:17:50.188Z,13.18
2022-10-10T08:20:18.590Z,11.55
2022-10-10T08:22:46.589Z,12.10
2022-10-10T08:25:14.900Z,12.95
2022-10-10T08:27:43.576Z,12.25
2022-10-10T08:30:14.070Z,12.13
2022-10-10T08:32:42.106Z,11.75
2022-10-10T08:35:10.383Z,11.80
2022-10-10T08:37:38.813Z,11.30
2022-10-10T08:40:08.406Z,11.60
2022-10-10T08:42:47.111Z,11.85
2022-10-10T08:45:21.507Z,11.40
2022-10-10T08:47:54.285Z,11.75
2022-10-10T08:50:26.527Z,11.02
2022-10-10T08:52:58.938Z,12.57
2022-10-10T08:55:33.547Z,11.35
2022-10-10T08:58:07.467Z,10.85
2022-10-10T09:00:41.218Z,10.00
2022-10-10T09:03:21.667Z,10.25
2022-10-10T09:06:05.165Z,9.70
2022-10-10T09:08:46.450Z,8.98
2022-10-10T09:11:29.465Z,9.20
2022-10-10T09:14:09.800Z,9.52
2022-10-10T09:16:48.365Z,8.10
2022-10-10T09:19:30.698Z,7.78
2022-10-10T09:22:04.686Z,8.40
2022-10-10T09:24:41.210Z,7.55
2022-10-10T09:27:16.393Z,8.10
2022-10-10T09:29:50.622Z,7.18
2022-10-10T09:32:24.199Z,7.75
2022-10-10T09:34:56.416Z,7.40
2022-10-10T09:37:46.246Z,7.28
2022-10-10T09:40:23.300Z,6.70
2022-10-10T09:42:51.762Z,6.82
2022-10-10T09:45:22.348Z,6.55
2022-10-10T09:47:55.119Z,6.93
2022-10-10T09:50:24.389Z,7.45
2022-10-10T09:52:53.603Z,7.28
2022-10-10T09:55:27.063Z,7.93
2022-10-10T09:57:59.863Z,7.68
2022-10-10T10:00:34.596Z,6.38
2022-10-10T10:03:12.978Z,6.90
2022-10-10T10:05:43.245Z,7.20
2022-10-10T10:08:24.086Z,6.70
2022-10-10T10:10:52.289Z,7.03
2022-10-10T10:13:25.543Z,6.85
2022-10-10T10:15:59.943Z,6.38
2022-10-10T10:18:30.325Z,6.25
2022-10-10T10:21:15.226Z,6.25
2022-10-10T10:23:45.376Z,6.55
2022-10-10T10:26:19.853Z,6.68
2022-10-10T10:28:49.551Z,7.88
2022-10-10T10:31:42.663Z,6.25
2022-10-10T10:34:40.879Z,6.47
2022-10-10T10:37:19.123Z,6.85
2022-10-10T10:40:18.158Z,6.85
2022-10-10T10:43:01.253Z,6.43
2022-10-10T10:45:38.585Z,6.30
2022-10-10T10:48:18.484Z,6.55
2022-10-10T10:50:53.875Z,5.50
2022-10-10T10:53:32.278Z,6.47
2022-10-10T10:56:10.352Z,6.65
2022-10-10T10:59:30.215Z,6.07
2022-10-10T11:02:00.970Z,6.63
2022-10-10T11:05:18.961Z,6.13
2022-10-10T11:07:54.697Z,6.30
2022-10-10T11:10:30.486Z,5.78
2022-10-10T11:13:07.953Z,6.10
2022-10-10T11:16:06.203Z,6.50
2022-10-10T11:18:34.744Z,7.75
2022-10-10T11:21:08.011Z,6.97
2022-10-10T11:23:44.078Z,7.70
2022-10-10T11:26:17.957Z,6.85
2022-10-10T11:28:51.871Z,6.85
2022-10-10T11:31:25.675Z,7.32
2022-10-10T11:33:58.789Z,7.70
2022-10-10T11:36:31.510Z,6.38
2022-10-10T11:39:04.662Z,7.35
2022-10-10T11:41:38.336Z,7.57
2022-10-10T11:44:13.718Z,7.32
2022-10-10T11:46:44.845Z,7.82
2022-10-10T11:49:21.140Z,8.55
2022-10-10T11:52:32.457Z,8.20
2022-10-10T11:55:07.946Z,7.68
2022-10-10T11:57:42.473Z,7.53
2022-10-10T12:00:16.057Z,8.20
2022-10-10T12:02:46.007Z,7.40
2022-10-10T12:05:23.340Z,7.50
2022-10-10T12:08:08.679Z,8.35
2022-10-10T12:10:43.730Z,7.90
2022-10-10T12:13:26.696Z,7.15
2022-10-10T12:15:57.960Z,7.88
2022-10-10T12:18:29.414Z,7.05
2022-10-10T12:21:09.553Z,7.43
2022-10-10T12:23:38.737Z,7.30
2022-10-10T12:26:08.281Z,6.95
2022-10-10T12:28:38.809Z,7.00
2022-10-10T12:31:30.396Z,6.70
2022-10-10T12:34:17.851Z,7.20
2022-10-10T12:36:59.068Z,6.65
2022-10-10T12:39:38.601Z,6.97
2022-10-10T12:42:33.427Z,6.35
2022-10-10T12:45:02.024Z,7.95
2022-10-10T12:48:04.057Z,7.85
2022-10-10T12:50:34.612Z,6.97
2022-10-10T12:53:05.536Z,6.63
2022-10-10T12:55:42.838Z,6.85
2022-10-10T12:58:26.620Z,7.00
2022-10-10T13:00:57.506Z,6.53
2022-10-10T13:03:32.425Z,6.57
2022-10-10T13:06:06.564Z,7.30
2022-10-10T13:08:38.839Z,7.85
2022-10-10T13:11:11.416Z,8.25
2022-10-10T13:13:42.907Z,7.72
2022-10-10T13:16:15.443Z,8.30
2022-10-10T13:18:50.034Z,8.30
2022-10-10T13:21:22.788Z,7.65
2022-10-10T13:26:46.782Z,7.30
2022-10-10T13:29:24.668Z,6.95
2022-10-10T13:31:54.232Z,6.50
2022-10-10T13:34:27.360Z,6.38
2022-10-10T13:36:58.317Z,6.50
2022-10-10T13:39:27.687Z,6.65
2022-10-10T13:41:56.558Z,7.05
2022-10-10T13:44:31.643Z,7.68
2022-10-10T13:47:00.032Z,6.65
2022-10-10T13:49:29.682Z,7.53
2022-10-10T13:52:03.551Z,7.55
2022-10-10T13:54:39.555Z,7.07
2022-10-10T13:57:14.567Z,6.18
2022-10-10T13:59:45.383Z,6.22
2022-10-10T14:02:16.795Z,6.57
2022-10-10T14:04:51.021Z,7.20
2022-10-10T14:07:22.993Z,7.38
2022-10-10T14:09:55.854Z,7.28
2022-10-10T14:12:29.373Z,6.80
2022-10-10T14:15:00.246Z,7.70
2022-10-10T14:17:29.643Z,7.40
2022-10-10T14:19:58.031Z,7.15
2022-10-10T14:22:26.840Z,8.10
2022-10-10T14:24:54.830Z,7.55
2022-10-10T14:27:25.598Z,7.32
2022-10-10T14:29:54.825Z,7.72
2022-10-10T14:32:25.190Z,7.70
2022-10-10T14:34:53.201Z,7.20
2022-10-10T14:37:24.810Z,6.38
2022-10-10T14:39:53.202Z,7.32
2022-10-10T14:42:22.801Z,7.43
2022-10-10T14:44:50.945Z,6.68
2022-10-10T14:47:22.265Z,7.03
2022-10-10T14:49:52.856Z,6.93
2022-10-10T14:52:20.925Z,6.78
2022-10-10T14:54:49.786Z,7.30
2022-10-10T14:57:22.434Z,7.93
2022-10-10T14:59:50.497Z,7.50
2022-10-10T15:02:20.826Z,7.40
2022-10-10T15:04:49.489Z,7.93
2022-10-10T15:07:19.741Z,7.13
2022-10-10T15:10:27.552Z,6.63
2022-10-10T15:12:41.574Z,7.32
2022-10-10T15:15:11.298Z,7.07
2022-10-10T15:17:39.380Z,7.03
2022-10-10T15:20:10.987Z,7.43
2022-10-10T15:22:41.173Z,7.22
2022-10-10T15:25:10.427Z,9.13
2022-10-10T15:27:39.670Z,8.98
2022-10-10T15:30:09.186Z,9.13
2022-10-10T15:32:40.190Z,8.85
2022-10-10T15:35:09.102Z,9.40
2022-10-10T15:37:37.198Z,8.95
2022-10-10T15:40:07.788Z,10.05
2022-10-10T15:42:35.841Z,10.05
2022-10-10T15:45:03.999Z,9.52
2022-10-10T15:47:32.466Z,9.68
2022-10-10T15:50:01.353Z,9.98
2022-10-10T15:52:29.443Z,11.50
2022-10-10T15:54:57.751Z,9.15
2022-10-10T15:57:27.422Z,9.93
2022-10-10T15:59:56.011Z,9.35
2022-10-10T16:02:24.298Z,10.40
2022-10-10T16:04:52.418Z,10.98
2022-10-10T16:07:28.165Z,17.40
2022-10-10T16:09:58.077Z,16.88
2022-10-10T16:12:27.603Z,12.45
2022-10-10T16:14:56.667Z,11.90
2022-10-10T16:17:24.741Z,13.32
2022-10-10T16:19:52.839Z,26.10
2022-10-10T16:22:21.881Z,18.55
2022-10-10T16:25:04.056Z,13.93
2022-10-10T16:27:43.185Z,15.00
2022-10-10T16:30:12.325Z,10.52
2022-10-10T16:32:42.587Z,14.40
2022-10-10T16:35:11.897Z,23.63
2022-10-10T16:37:41.348Z,13.93
2022-10-10T16:40:10.519Z,10.48
2022-10-10T16:42:40.148Z,10.82
2022-10-10T16:45:09.403Z,12.23
2022-10-10T16:47:38.239Z,12.88
2022-10-10T16:50:08.620Z,11.45
2022-10-10T16:52:38.403Z,10.85
2022-10-10T16:55:07.967Z,10.27
2022-10-10T16:57:36.709Z,11.70
2022-10-10T17:00:08.743Z,10.93
2022-10-10T17:02:38.984Z,10.82
2022-10-10T17:05:07.978Z,11.23
2022-10-10T17:07:36.827Z,10.80
2022-10-10T17:10:05.903Z,11.77
2022-10-10T17:12:34.002Z,12.40
2022-10-10T17:15:02.217Z,12.38
2022-10-10T17:17:31.847Z,13.73
2022-10-10T17:19:59.949Z,12.55
2022-10-10T17:22:28.016Z,12.60
2022-10-10T17:24:56.197Z,12.50
2022-10-10T17:27:25.252Z,12.07
2022-10-10T17:29:54.116Z,12.43
2022-10-10T17:32:22.843Z,12.65
2022-10-10T17:34:53.649Z,13.02
2022-10-10T17:37:22.331Z,12.57
2022-10-10T17:39:50.499Z,13.73
2022-10-10T17:42:18.808Z,13.85
2022-10-10T17:44:51.451Z,13.20
2022-10-10T17:47:22.934Z,14.43
2022-10-10T17:49:54.783Z,14.90
2022-10-10T17:52:24.889Z,15.88
2022-10-10T17:54:52.930Z,14.30
2022-10-10T17:57:21.589Z,14.13
2022-10-10T17:59:49.970Z,13.63
2022-10-10T18:02:19.857Z,13.30
2022-10-10T18:04:48.601Z,15.38
2022-10-10T18:07:19.133Z,13.75
2022-10-10T18:09:49.045Z,14.35
2022-10-10T18:12:17.490Z,19.50
2022-10-10T18:14:45.629Z,14.25
2022-10-10T18:17:14.286Z,15.82
2022-10-10T18:19:42.543Z,15.60
2022-10-10T18:22:11.916Z,15.60
2022-10-10T18:24:41.505Z,15.93
2022-10-10T18:27:09.549Z,14.05
2022-10-10T18:29:38.341Z,14.50
2022-10-10T18:32:06.853Z,14.95
2022-10-10T18:34:34.965Z,14.50
2022-10-10T18:37:02.973Z,13.60
2022-10-10T18:39:33.282Z,14.57
2022-10-10T18:42:03.138Z,13.20
2022-10-10T18:44:31.431Z,13.05
2022-10-10T18:46:59.487Z,12.52
2022-10-10T18:49:27.830Z,12.80
2022-10-10T18:51:56.410Z,12.98
2022-10-10T18:54:28.037Z,13.65
2022-10-10T18:56:56.153Z,13.15
2022-10-10T18:59:26.433Z,12.20
2022-10-10T19:01:54.503Z,12.82
2022-10-10T19:04:23.259Z,12.75
2022-10-10T19:06:57.062Z,12.52
2022-10-10T19:09:26.912Z,12.70
2022-10-10T19:11:55.234Z,12.88
2022-10-10T19:14:23.625Z,13.25
2022-10-10T19:16:53.813Z,12.77
2022-10-10T19:19:22.868Z,13.18
2022-10-10T19:21:51.868Z,12.23
2022-10-10T19:24:21.491Z,12.88
2022-10-10T19:26:53.532Z,13.02
2022-10-10T19:29:22.347Z,13.32
2022-10-10T19:31:53.006Z,13.07
2022-10-10T19:34:21.219Z,13.15
2022-10-10T19:36:50.203Z,12.77
2022-10-10T19:39:18.199Z,12.50
2022-10-10T19:41:46.189Z,13.15
2022-10-10T19:44:14.334Z,13.65
2022-10-10T19:46:42.381Z,12.75
2022-10-10T19:49:13.016Z,13.13
2022-10-10T19:51:41.125Z,14.15
2022-10-10T19:54:09.509Z,12.63
2022-10-10T19:56:39.722Z,12.70
2022-10-10T19:59:07.805Z,11.27
2022-10-10T20:01:35.994Z,12.52
2022-10-10T20:04:04.303Z,10.97
2022-10-10T20:06:33.725Z,11.52
2022-10-10T20:09:01.704Z,11.20
2022-10-10T20:11:29.967Z,10.82
2022-10-10T20:13:58.650Z,11.57
2022-10-10T20:16:27.865Z,10.82
2022-10-10T20:18:57.597Z,11.43
2022-10-10T20:21:31.793Z,11.43
2022-10-10T20:24:03.141Z,11.45
2022-10-10T20:26:32.583Z,11.32
2022-10-10T20:29:01.245Z,12.07
2022-10-10T20:31:30.926Z,11.35
2022-10-10T20:34:01.890Z,10.87
2022-10-10T20:36:31.574Z,11.47
2022-10-10T20:39:02.813Z,11.82
2022-10-10T20:41:33.395Z,11.25
2022-10-10T20:44:04.533Z,11.20
2022-10-10T20:46:35.876Z,11.82
2022-10-10T20:49:06.914Z,11.82
2022-10-10T20:51:35.658Z,11.83
2022-10-10T20:54:07.763Z,11.30
2022-10-10T20:56:37.063Z,11.40
2022-10-10T20:59:05.337Z,11.70
2022-10-10T21:01:33.396Z,11.45
2022-10-10T21:04:02.174Z,11.27
2022-10-10T21:06:33.159Z,11.37
2022-10-10T21:09:03.021Z,10.38
2022-10-10T21:11:32.718Z,11.57
2022-10-10T21:14:02.176Z,11.00
2022-10-10T21:16:32.899Z,11.07
2022-10-10T21:19:01.327Z,10.20
2022-10-10T21:21:31.038Z,11.03
2022-10-10T21:23:59.568Z,11.00
2022-10-10T21:26:29.302Z,10.73
2022-10-10T21:29:02.234Z,11.00
2022-10-10T21:31:32.134Z,10.73
2022-10-10T21:34:00.770Z,10.15
2022-10-10T21:36:28.790Z,11.37
2022-10-10T21:38:57.256Z,10.73
2022-10-10T21:41:25.402Z,11.23
2022-10-10T21:43:55.900Z,10.50
2022-10-10T21:46:29.148Z,11.47
2022-10-10T21:48:59.475Z,10.55
2022-10-10T21:51:27.447Z,10.90
2022-10-10T21:53:57.797Z,10.53
2022-10-10T21:56:26.543Z,10.23
2022-10-10T21:58:58.858Z,10.50
2022-10-10T22:01:33.355Z,10.73
2022-10-10T22:04:02.462Z,9.80
2022-10-10T22:06:30.901Z,11.70
2022-10-10T22:09:01.550Z,12.90
2022-10-10T22:11:31.463Z,10.97
2022-10-10T22:14:02.382Z,11.57
2022-10-10T22:16:32.908Z,10.77
2022-10-10T22:19:01.010Z,11.30
2022-10-10T22:21:32.092Z,11.43
2022-10-10T22:24:01.604Z,11.30
2022-10-10T22:26:30.493Z,10.93
2022-10-10T22:28:58.889Z,9.80
2022-10-10T22:31:27.086Z,11.47
2022-10-10T22:33:56.401Z,10.37
2022-10-10T22:36:24.408Z,10.30
2022-10-10T22:38:52.344Z,9.40
2022-10-10T22:41:20.357Z,10.40
2022-10-10T22:43:49.768Z,10.57
2022-10-10T22:46:17.891Z,10.67
2022-10-10T22:48:46.034Z,10.60
2022-10-10T22:51:17.660Z,10.80
2022-10-10T22:53:46.858Z,9.73
2022-10-10T22:56:16.435Z,10.97
2022-10-10T22:58:45.022Z,9.97
2022-10-10T23:01:18.490Z,9.90
2022-10-10T23:03:46.675Z,9.90
2022-10-10T23:06:16.490Z,9.10
2022-10-10T23:08:44.646Z,11.30
2022-10-10T23:11:12.683Z,11.17
2022-10-10T23:13:40.725Z,9.57
2022-10-10T23:16:09.342Z,9.97
2022-10-10T23:18:37.423Z,9.33
2022-10-10T23:21:05.396Z,9.63
2022-10-10T23:23:34.974Z,10.07
2022-10-10T23:26:07.462Z,9.47
2022-10-10T23:28:36.920Z,8.83
2022-10-10T23:31:08.620Z,9.90
2022-10-10T23:33:37.634Z,9.87
2022-10-10T23:36:08.763Z,9.33
2022-10-10T23:38:38.481Z,9.53
2022-10-10T23:41:06.972Z,8.77
2022-10-10T23:43:35.290Z,9.23
2022-10-10T23:46:03.887Z,8.27
2022-10-10T23:48:32.435Z,8.83
2022-10-10T23:51:00.445Z,8.53
2022-10-10T23:53:28.508Z,8.33
2022-10-10T23:55:58.069Z,8.30
2022-10-10T23:58:26.118Z,7.63
